createdAt,value
2022-09-12T00:00:51.651Z,99.90
2022-09-12T00:03:18.410Z,99.90
2022-09-12T00:05:47.238Z,99.90
2022-09-12T00:08:14.894Z,99.90
2022-09-12T00:10:43.823Z,99.90
2022-09-12T00:13:11.859Z,99.90
2022-09-12T00:15:39.887Z,99.90
2022-09-12T00:18:08.160Z,99.90
2022-09-12T00:20:34.875Z,99.90
2022-09-12T00:23:01.723Z,99.90
2022-09-12T00:25:31.045Z,99.90
2022-09-12T00:27:57.752Z,99.90
2022-09-12T00:30:25.208Z,99.90
2022-09-12T00:32:54.602Z,99.90
2022-09-12T00:35:21.348Z,99.90
2022-09-12T00:37:48.059Z,99.90
2022-09-12T00:40:15.105Z,99.90
2022-09-12T00:42:41.835Z,99.90
2022-09-12T00:45:23.592Z,99.90
2022-09-12T00:47:50.572Z,99.90
2022-09-12T00:50:20.931Z,99.90
2022-09-12T00:53:08.047Z,99.90
2022-09-12T00:55:49.014Z,99.90
2022-09-12T00:58:57.818Z,99.90
2022-09-12T01:01:25.937Z,99.90
2022-09-12T01:03:54.227Z,99.90
2022-09-12T01:06:32.454Z,99.90
2022-09-12T01:09:03.558Z,99.90
2022-09-12T01:11:34.346Z,99.90
2022-09-12T01:14:01.145Z,99.90
2022-09-12T01:16:28.128Z,99.90
2022-09-12T01:19:19.050Z,99.90
2022-09-12T01:22:14.110Z,99.90
2022-09-12T01:24:46.959Z,99.90
2022-09-12T01:27:25.706Z,99.90
2022-09-12T01:30:19.920Z,99.90
2022-09-12T01:33:13.318Z,99.90
2022-09-12T01:35:53.893Z,99.90
2022-09-12T01:38:43.144Z,99.90
2022-09-12T01:41:14.578Z,99.90
2022-09-12T01:44:02.366Z,99.90
2022-09-12T01:46:37.133Z,99.90
2022-09-12T01:49:32.937Z,99.90
2022-09-12T01:52:08.899Z,99.90
2022-09-12T01:54:41.233Z,99.90
2022-09-12T01:57:25.625Z,99.90
2022-09-12T01:59:57.371Z,99.90
2022-09-12T02:02:33.465Z,99.90
2022-09-12T02:05:06.817Z,99.90
2022-09-12T02:07:51.363Z,99.90
2022-09-12T02:10:23.266Z,99.90
2022-09-12T02:12:56.545Z,99.90
2022-09-12T02:15:32.546Z,99.90
2022-09-12T02:18:04.533Z,99.90
2022-09-12T02:20:48.070Z,99.90
2022-09-12T02:23:26.394Z,99.90
2022-09-12T02:25:58.872Z,99.90
2022-09-12T02:28:30.944Z,99.90
2022-09-12T02:31:09.306Z,99.90
2022-09-12T02:33:45.086Z,99.90
2022-09-12T02:36:30.932Z,99.90
2022-09-12T02:38:57.912Z,99.90
2022-09-12T02:41:25.056Z,99.90
2022-09-12T02:43:53.133Z,99.90
2022-09-12T02:46:28.734Z,99.90
2022-09-12T02:48:56.519Z,99.90
2022-09-12T02:51:23.897Z,99.90
2022-09-12T02:53:51.383Z,99.90
2022-09-12T02:56:30.989Z,99.90
2022-09-12T02:59:02.540Z,99.90
2022-09-12T03:02:12.576Z,99.90
2022-09-12T03:05:10.068Z,99.90
2022-09-12T03:07:54.556Z,99.90
2022-09-12T03:10:43.131Z,99.90
2022-09-12T03:13:12.922Z,99.90
2022-09-12T03:16:04.211Z,99.90
2022-09-12T03:18:51.837Z,99.90
2022-09-12T03:21:28.716Z,99.90
2022-09-12T03:24:10.030Z,99.90
2022-09-12T03:26:43.146Z,99.90
2022-09-12T03:29:11.870Z,99.90
2022-09-12T03:31:52.264Z,99.90
2022-09-12T03:34:20.424Z,99.90
2022-09-12T03:36:47.528Z,99.90
2022-09-12T03:39:14.776Z,99.90
2022-09-12T03:41:41.657Z,99.90
2022-09-12T03:44:08.685Z,99.90
2022-09-12T03:46:36.583Z,99.90
2022-09-12T03:49:04.671Z,99.90
2022-09-12T03:51:31.375Z,99.90
2022-09-12T03:53:58.185Z,99.90
2022-09-12T03:56:25.163Z,99.90
2022-09-12T03:58:51.877Z,99.90
2022-09-12T04:01:20.209Z,99.90
2022-09-12T04:03:49.207Z,99.90
2022-09-12T04:06:19.034Z,99.90
2022-09-12T04:08:50.504Z,99.90
2022-09-12T04:11:19.995Z,99.90
2022-09-12T04:13:48.566Z,99.90
2022-09-12T04:16:16.695Z,99.90
2022-09-12T04:18:43.679Z,99.90
2022-09-12T04:21:16.294Z,99.90
2022-09-12T04:23:43.342Z,99.90
2022-09-12T04:26:10.772Z,99.90
2022-09-12T04:28:38.553Z,99.90
2022-09-12T04:31:24.919Z,99.90
2022-09-12T04:34:00.962Z,99.90
2022-09-12T04:36:28.992Z,99.90
2022-09-12T04:38:56.101Z,99.90
2022-09-12T04:41:25.460Z,99.90
2022-09-12T04:43:55.132Z,99.90
2022-09-12T04:46:22.028Z,99.90
2022-09-12T04:48:52.288Z,99.90
2022-09-12T04:51:27.782Z,99.90
2022-09-12T04:54:25.353Z,99.90
2022-09-12T04:56:52.539Z,99.90
2022-09-12T04:59:21.429Z,99.90
2022-09-12T05:01:48.672Z,99.90
2022-09-12T05:04:15.788Z,99.90
2022-09-12T05:06:43.414Z,99.90
2022-09-12T05:09:14.334Z,99.90
2022-09-12T05:14:32.630Z,99.90
2022-09-12T05:17:01.311Z,99.90
2022-09-12T05:19:30.063Z,99.90
2022-09-12T05:21:56.944Z,99.90
2022-09-12T05:24:24.742Z,99.90
2022-09-12T05:26:51.884Z,99.90
2022-09-12T05:29:18.995Z,99.90
2022-09-12T05:31:45.849Z,99.90
2022-09-12T05:34:12.686Z,99.90
2022-09-12T05:36:39.461Z,99.90
2022-09-12T05:39:06.654Z,99.90
2022-09-12T05:41:34.587Z,99.90
2022-09-12T05:44:03.528Z,99.90
2022-09-12T05:46:37.106Z,99.90
2022-09-12T05:49:06.234Z,99.90
2022-09-12T05:51:36.240Z,99.90
2022-09-12T05:54:04.475Z,99.90
2022-09-12T05:56:34.305Z,99.90
2022-09-12T05:59:04.049Z,99.90
2022-09-12T06:01:32.652Z,99.90
2022-09-12T06:04:01.269Z,99.90
2022-09-12T06:06:30.465Z,99.90
2022-09-12T06:09:01.267Z,99.90
2022-09-12T06:11:30.419Z,99.90
2022-09-12T06:13:58.441Z,99.90
2022-09-12T06:16:28.910Z,99.90
2022-09-12T06:18:58.144Z,99.90
2022-09-12T06:21:26.604Z,99.90
2022-09-12T06:23:58.612Z,99.90
2022-09-12T06:26:26.183Z,99.90
2022-09-12T06:28:55.156Z,99.90
2022-09-12T06:31:28.746Z,99.90
2022-09-12T06:33:57.103Z,99.90
2022-09-12T06:36:26.847Z,99.90
2022-09-12T06:38:57.053Z,99.90
2022-09-12T06:41:24.485Z,99.90
2022-09-12T06:43:51.539Z,99.90
2022-09-12T06:46:18.951Z,99.90
2022-09-12T06:48:45.819Z,99.90
2022-09-12T06:51:15.224Z,99.90
2022-09-12T06:53:44.281Z,99.90
2022-09-12T06:56:14.554Z,99.90
2022-09-12T06:58:42.703Z,99.90
2022-09-12T07:01:16.748Z,99.90
2022-09-12T07:03:51.749Z,99.90
2022-09-12T07:06:20.379Z,99.90
2022-09-12T07:08:48.004Z,99.90
2022-09-12T07:11:19.033Z,99.90
2022-09-12T07:13:48.265Z,99.90
2022-09-12T07:16:19.424Z,99.90
2022-09-12T07:18:51.890Z,99.90
2022-09-12T07:21:18.816Z,99.90
2022-09-12T07:23:46.086Z,99.90
2022-09-12T07:26:14.369Z,99.90
2022-09-12T07:28:41.354Z,99.90
2022-09-12T07:31:12.654Z,99.90
2022-09-12T07:33:40.343Z,99.90
2022-09-12T07:36:13.861Z,99.90
2022-09-12T07:38:41.557Z,99.90
2022-09-12T07:41:18.634Z,99.90
2022-09-12T07:43:45.817Z,99.90
2022-09-12T07:46:13.575Z,99.90
2022-09-12T07:48:41.022Z,99.90
2022-09-12T07:51:09.687Z,99.90
2022-09-12T07:53:41.556Z,99.90
2022-09-12T07:56:12.944Z,99.90
2022-09-12T07:58:41.794Z,99.90
2022-09-12T08:01:13.168Z,99.90
2022-09-12T08:03:41.763Z,99.90
2022-09-12T08:06:20.280Z,99.90
2022-09-12T08:08:47.893Z,99.90
2022-09-12T08:11:16.766Z,99.90
2022-09-12T08:13:44.393Z,99.90
2022-09-12T08:16:15.193Z,99.90
2022-09-12T08:18:42.297Z,99.90
2022-09-12T08:21:12.940Z,99.90
2022-09-12T08:23:39.663Z,99.90
2022-09-12T08:26:06.832Z,99.90
2022-09-12T08:28:35.429Z,98.90
2022-09-12T08:31:08.238Z,98.00
2022-09-12T08:33:35.435Z,99.20
2022-09-12T08:36:15.144Z,98.70
2022-09-12T08:38:44.394Z,98.50
2022-09-12T08:41:36.574Z,98.10
2022-09-12T08:44:18.058Z,97.60
2022-09-12T08:47:02.965Z,94.80
2022-09-12T08:49:33.681Z,96.80
2022-09-12T08:52:07.144Z,94.00
2022-09-12T08:54:35.138Z,92.10
2022-09-12T08:57:04.721Z,92.30
2022-09-12T08:59:38.503Z,94.00
2022-09-12T09:02:23.174Z,92.00
2022-09-12T09:05:13.588Z,94.30
2022-09-12T09:07:55.852Z,90.50
2022-09-12T09:10:25.623Z,94.30
2022-09-12T09:13:49.146Z,87.40
2022-09-12T09:16:31.732Z,92.00
2022-09-12T09:19:31.409Z,91.90
2022-09-12T09:22:02.856Z,88.70
2022-09-12T09:24:43.289Z,87.40
2022-09-12T09:27:42.007Z,85.70
2022-09-12T09:30:15.425Z,86.60
2022-09-12T09:32:44.926Z,82.40
2022-09-12T09:35:16.956Z,81.50
2022-09-12T09:37:58.558Z,73.30
2022-09-12T09:40:36.935Z,75.70
2022-09-12T09:43:22.915Z,80.10
2022-09-12T09:45:51.836Z,76.70
2022-09-12T09:48:27.622Z,78.20
2022-09-12T09:50:54.655Z,73.50
2022-09-12T09:53:46.323Z,73.20
2022-09-12T09:56:35.074Z,72.90
2022-09-12T09:59:27.291Z,77.50
2022-09-12T10:01:57.563Z,71.10
2022-09-12T10:04:41.439Z,75.00
2022-09-12T10:07:19.291Z,76.10
2022-09-12T10:10:06.785Z,74.90
2022-09-12T10:12:33.662Z,69.90
2022-09-12T10:15:03.416Z,70.00
2022-09-12T10:17:53.542Z,66.10
2022-09-12T10:20:43.073Z,67.50
2022-09-12T10:23:19.038Z,67.00
2022-09-12T10:25:48.531Z,64.40
2022-09-12T10:28:31.878Z,66.00
2022-09-12T10:31:02.998Z,67.50
2022-09-12T10:33:31.610Z,67.40
2022-09-12T10:35:59.157Z,71.30
2022-09-12T10:38:32.583Z,65.30
2022-09-12T10:41:01.215Z,69.50
2022-09-12T10:43:35.974Z,71.50
2022-09-12T10:46:15.816Z,74.30
2022-09-12T10:48:44.221Z,69.30
2022-09-12T10:51:24.453Z,71.60
2022-09-12T10:53:53.637Z,72.10
2022-09-12T10:56:31.382Z,68.80
2022-09-12T10:59:29.007Z,63.20
2022-09-12T11:02:28.572Z,64.80
2022-09-12T11:05:11.075Z,63.30
2022-09-12T11:07:43.886Z,70.60
2022-09-12T11:10:10.814Z,68.80
2022-09-12T11:12:57.318Z,63.90
2022-09-12T11:15:35.386Z,64.70
2022-09-12T11:18:30.455Z,68.70
2022-09-12T11:21:16.572Z,68.60
2022-09-12T11:24:30.945Z,72.20
2022-09-12T11:27:09.423Z,71.20
2022-09-12T11:29:40.193Z,72.50
2022-09-12T11:32:27.673Z,69.00
2022-09-12T11:35:26.213Z,72.70
2022-09-12T11:38:00.776Z,71.50
2022-09-12T11:40:40.559Z,75.20
2022-09-12T11:43:21.956Z,75.70
2022-09-12T11:45:51.826Z,73.20
2022-09-12T11:48:28.097Z,67.80
2022-09-12T11:50:55.250Z,66.10
2022-09-12T11:53:30.012Z,67.60
2022-09-12T11:56:09.354Z,70.90
2022-09-12T11:58:37.425Z,73.40
2022-09-12T12:01:21.631Z,69.60
2022-09-12T12:03:52.467Z,68.30
2022-09-12T12:06:26.613Z,69.60
2022-09-12T12:08:53.673Z,71.30
2022-09-12T12:11:36.971Z,72.60
2022-09-12T12:14:21.987Z,70.80
2022-09-12T12:16:50.877Z,74.00
2022-09-12T12:19:17.574Z,71.80
2022-09-12T12:21:47.262Z,71.30
2022-09-12T12:24:14.000Z,72.90
2022-09-12T12:26:40.773Z,73.10
2022-09-12T12:29:11.615Z,73.30
2022-09-12T12:32:10.483Z,73.20
2022-09-12T12:34:47.579Z,74.40
2022-09-12T12:37:20.285Z,68.00
2022-09-12T12:39:48.382Z,68.90
2022-09-12T12:42:36.485Z,68.00
2022-09-12T12:45:10.086Z,67.40
2022-09-12T12:47:44.479Z,68.30
2022-09-12T12:50:11.475Z,68.30
2022-09-12T12:52:50.157Z,68.50
2022-09-12T12:55:33.226Z,72.00
2022-09-12T12:58:02.549Z,67.00
2022-09-12T13:00:35.453Z,70.10
2022-09-12T13:03:08.033Z,66.80
2022-09-12T13:05:47.245Z,68.30
2022-09-12T13:08:16.942Z,67.80
2022-09-12T13:10:59.639Z,66.70
2022-09-12T13:13:39.836Z,62.80
2022-09-12T13:16:07.704Z,60.70
2022-09-12T13:18:40.798Z,60.40
2022-09-12T13:21:17.124Z,60.60
2022-09-12T13:23:45.052Z,62.70
2022-09-12T13:26:23.913Z,63.60
2022-09-12T13:28:51.479Z,64.30
2022-09-12T13:31:25.393Z,66.20
2022-09-12T13:33:59.285Z,68.60
2022-09-12T13:36:29.102Z,64.00
2022-09-12T13:39:16.266Z,67.00
2022-09-12T13:41:49.178Z,61.00
2022-09-12T13:44:19.481Z,62.20
2022-09-12T13:46:47.182Z,63.40
2022-09-12T13:49:35.726Z,65.50
2022-09-12T13:52:06.845Z,68.50
2022-09-12T13:54:37.830Z,61.70
2022-09-12T13:57:05.304Z,58.80
2022-09-12T13:59:44.244Z,59.10
2022-09-12T14:02:20.732Z,59.50
2022-09-12T14:05:09.016Z,59.20
2022-09-12T14:08:01.389Z,60.50
2022-09-12T14:10:35.588Z,59.80
2022-09-12T14:13:05.492Z,58.70
2022-09-12T14:15:35.982Z,58.70
2022-09-12T14:18:05.205Z,60.70
2022-09-12T14:20:41.906Z,59.30
2022-09-12T14:23:24.367Z,59.50
2022-09-12T14:25:52.067Z,56.20
2022-09-12T14:28:23.408Z,56.30
2022-09-12T14:31:17.436Z,56.70
2022-09-12T14:33:49.786Z,60.00
2022-09-12T14:36:36.471Z,58.60
2022-09-12T14:39:17.563Z,58.90
2022-09-12T14:41:44.544Z,59.20
2022-09-12T14:44:22.536Z,58.70
2022-09-12T14:46:51.108Z,59.80
2022-09-12T14:49:36.590Z,59.70
2022-09-12T14:52:07.094Z,61.20
2022-09-12T14:54:33.908Z,60.50
2022-09-12T14:57:27.481Z,59.60
2022-09-12T15:00:05.198Z,62.90
2022-09-12T15:02:34.363Z,61.70
2022-09-12T15:05:04.206Z,60.90
2022-09-12T15:07:39.830Z,64.60
2022-09-12T15:10:22.047Z,62.10
2022-09-12T15:12:49.484Z,62.40
2022-09-12T15:15:20.991Z,64.60
2022-09-12T15:17:48.774Z,67.10
2022-09-12T15:20:15.551Z,65.40
2022-09-12T15:22:42.589Z,65.00
2022-09-12T15:25:12.369Z,65.10
2022-09-12T15:27:42.330Z,65.10
2022-09-12T15:30:10.389Z,64.10
2022-09-12T15:32:37.560Z,63.80
2022-09-12T15:35:10.137Z,64.90
2022-09-12T15:37:36.914Z,66.30
2022-09-12T15:40:04.916Z,67.80
2022-09-12T15:42:32.104Z,67.70
2022-09-12T15:45:02.497Z,67.20
2022-09-12T15:47:29.703Z,68.20
2022-09-12T15:49:56.546Z,66.90
2022-09-12T15:52:23.255Z,66.70
2022-09-12T15:54:50.181Z,67.90
2022-09-12T15:57:17.216Z,68.30
2022-09-12T15:59:44.062Z,68.70
2022-09-12T16:02:11.715Z,69.70
2022-09-12T16:04:38.429Z,69.60
2022-09-12T16:07:05.407Z,70.10
2022-09-12T16:09:32.420Z,68.70
2022-09-12T16:11:59.172Z,70.60
2022-09-12T16:14:25.925Z,70.20
2022-09-12T16:16:54.314Z,69.70
2022-09-12T16:19:21.119Z,69.50
2022-09-12T16:21:48.216Z,70.10
2022-09-12T16:24:15.077Z,70.20
2022-09-12T16:26:42.233Z,70.20
2022-09-12T16:29:12.460Z,71.50
2022-09-12T16:31:40.054Z,71.10
2022-09-12T16:34:07.365Z,70.10
2022-09-12T16:36:34.501Z,71.00
2022-09-12T16:39:01.264Z,71.50
2022-09-12T16:41:28.237Z,72.20
2022-09-12T16:43:55.551Z,72.60
2022-09-12T16:46:25.468Z,73.50
2022-09-12T16:48:54.473Z,73.00
2022-09-12T16:51:27.491Z,73.60
2022-09-12T16:53:55.845Z,74.20
2022-09-12T16:56:23.483Z,74.50
2022-09-12T16:58:50.583Z,75.00
2022-09-12T17:01:22.874Z,75.70
2022-09-12T17:03:56.781Z,76.70
2022-09-12T17:06:26.618Z,77.00
2022-09-12T17:08:54.965Z,78.10
2022-09-12T17:11:30.365Z,79.00
2022-09-12T17:14:06.741Z,79.00
2022-09-12T17:16:36.462Z,79.40
2022-09-12T17:19:04.429Z,79.80
2022-09-12T17:21:31.457Z,79.70
2022-09-12T17:23:59.182Z,79.70
2022-09-12T17:26:26.736Z,80.10
2022-09-12T17:28:55.648Z,80.90
2022-09-12T17:31:22.441Z,82.20
2022-09-12T17:33:49.391Z,83.40
2022-09-12T17:36:17.920Z,84.20
2022-09-12T17:38:45.818Z,84.50
2022-09-12T17:41:21.899Z,85.80
2022-09-12T17:43:51.928Z,85.80
2022-09-12T17:46:21.008Z,87.10
2022-09-12T17:48:52.748Z,87.10
2022-09-12T17:51:20.060Z,87.60
2022-09-12T17:53:47.382Z,88.30
2022-09-12T17:56:15.855Z,89.20
2022-09-12T17:58:42.911Z,89.50
2022-09-12T18:01:33.326Z,90.00
2022-09-12T18:04:01.088Z,90.30
2022-09-12T18:06:28.683Z,90.70
2022-09-12T18:08:55.811Z,91.10
2022-09-12T18:11:22.697Z,91.70
2022-09-12T18:13:50.564Z,92.10
2022-09-12T18:16:17.517Z,92.50
2022-09-12T18:18:44.417Z,93.30
2022-09-12T18:21:12.518Z,93.30
2022-09-12T18:23:39.552Z,93.70
2022-09-12T18:26:08.974Z,94.30
2022-09-12T18:28:40.939Z,94.90
2022-09-12T18:31:14.121Z,95.50
2022-09-12T18:33:41.472Z,96.20
2022-09-12T18:36:10.393Z,97.20
2022-09-12T18:38:37.791Z,98.30
2022-09-12T18:41:16.599Z,99.60
2022-09-12T18:43:56.702Z,99.90
2022-09-12T18:46:28.501Z,99.90
2022-09-12T18:48:57.889Z,99.90
2022-09-12T18:51:31.903Z,99.90
2022-09-12T18:54:01.580Z,99.90
2022-09-12T18:56:32.908Z,99.90
2022-09-12T18:59:00.968Z,99.90
2022-09-12T19:01:33.372Z,99.90
2022-09-12T19:04:06.101Z,99.90
2022-09-12T19:06:36.629Z,99.90
2022-09-12T19:09:07.753Z,99.90
2022-09-12T19:11:36.535Z,99.90
2022-09-12T19:14:07.710Z,99.90
2022-09-12T19:16:36.160Z,99.90
2022-09-12T19:19:04.445Z,99.90
2022-09-12T19:21:33.014Z,99.90
2022-09-12T19:24:04.086Z,99.90
2022-09-12T19:26:31.412Z,99.90
2022-09-12T19:29:02.401Z,99.90
2022-09-12T19:31:29.855Z,99.90
2022-09-12T19:34:01.893Z,99.90
2022-09-12T19:36:47.074Z,99.90
2022-09-12T19:39:16.363Z,99.90
2022-09-12T19:41:44.032Z,99.90
2022-09-12T19:44:13.113Z,99.90
2022-09-12T19:46:40.534Z,99.90
2022-09-12T19:49:07.700Z,99.90
2022-09-12T19:51:34.478Z,99.90
2022-09-12T19:54:01.410Z,99.90
2022-09-12T19:56:28.138Z,99.90
2022-09-12T19:58:56.797Z,99.90
2022-09-12T20:01:28.656Z,99.90
2022-09-12T20:03:57.930Z,99.90
2022-09-12T20:06:26.138Z,99.90
2022-09-12T20:08:53.204Z,99.90
2022-09-12T20:11:23.274Z,99.90
2022-09-12T20:13:50.270Z,99.90
2022-09-12T20:16:22.046Z,99.90
2022-09-12T20:18:59.834Z,99.90
2022-09-12T20:21:32.197Z,99.90
2022-09-12T20:24:10.868Z,99.90
2022-09-12T20:26:39.798Z,99.90
2022-09-12T20:29:08.343Z,99.90
2022-09-12T20:31:38.553Z,99.90
2022-09-12T20:34:06.149Z,99.90
2022-09-12T20:36:33.473Z,99.90
2022-09-12T20:39:02.348Z,99.90
2022-09-12T20:41:34.445Z,99.90
2022-09-12T20:44:01.767Z,99.90
2022-09-12T20:46:33.578Z,99.90
2022-09-12T20:49:00.420Z,99.90
2022-09-12T20:51:31.739Z,99.90
2022-09-12T20:54:00.436Z,99.90
2022-09-12T20:56:28.421Z,99.90
2022-09-12T20:58:55.920Z,99.90
2022-09-12T21:01:26.321Z,99.90
2022-09-12T21:03:53.831Z,99.90
2022-09-12T21:06:21.432Z,99.90
2022-09-12T21:08:51.104Z,99.90
2022-09-12T21:11:19.334Z,99.90
2022-09-12T21:13:46.841Z,99.90
2022-09-12T21:16:21.080Z,99.90
2022-09-12T21:18:56.675Z,99.90
2022-09-12T21:21:23.945Z,99.90
2022-09-12T21:23:51.343Z,99.90
2022-09-12T21:26:18.613Z,99.90
2022-09-12T21:28:49.480Z,99.90
2022-09-12T21:31:16.339Z,99.90
2022-09-12T21:33:44.175Z,99.90
2022-09-12T21:36:11.597Z,99.90
2022-09-12T21:38:40.771Z,99.90
2022-09-12T21:41:15.403Z,99.90
2022-09-12T21:43:42.914Z,99.90
2022-09-12T21:46:11.066Z,99.90
2022-09-12T21:48:38.012Z,99.90
2022-09-12T21:51:06.317Z,99.90
2022-09-12T21:53:33.227Z,99.90
2022-09-12T21:56:06.933Z,99.90
2022-09-12T21:58:35.665Z,99.90
2022-09-12T22:01:03.075Z,99.90
2022-09-12T22:03:29.986Z,99.90
2022-09-12T22:06:02.642Z,99.90
2022-09-12T22:08:36.068Z,99.90
2022-09-12T22:11:09.492Z,99.90
2022-09-12T22:13:39.147Z,99.90
2022-09-12T22:16:07.224Z,99.90
2022-09-12T22:18:38.143Z,99.90
2022-09-12T22:21:08.518Z,99.90
2022-09-12T22:23:53.992Z,99.90
2022-09-12T22:26:20.764Z,99.90
2022-09-12T22:28:47.801Z,99.90
2022-09-12T22:31:15.165Z,99.90
2022-09-12T22:33:42.053Z,99.90
2022-09-12T22:36:10.115Z,99.90
2022-09-12T22:38:38.169Z,99.90
2022-09-12T22:41:06.779Z,99.90
2022-09-12T22:43:34.946Z,99.90
2022-09-12T22:46:06.916Z,99.90
2022-09-12T22:48:33.970Z,99.90
2022-09-12T22:51:01.808Z,99.90
2022-09-12T22:53:28.660Z,99.90
2022-09-12T22:55:55.348Z,99.90
2022-09-12T22:58:22.404Z,99.90
2022-09-12T23:00:50.469Z,99.90
2022-09-12T23:03:18.273Z,99.90
2022-09-12T23:05:47.146Z,99.90
2022-09-12T23:08:19.586Z,99.90
2022-09-12T23:10:47.135Z,99.90
2022-09-12T23:13:14.104Z,99.90
2022-09-12T23:15:41.863Z,99.90
2022-09-12T23:18:08.687Z,99.90
2022-09-12T23:20:35.545Z,99.90
2022-09-12T23:23:02.361Z,99.90
2022-09-12T23:25:29.207Z,99.90
2022-09-12T23:27:55.945Z,99.90
2022-09-12T23:30:22.712Z,99.90
2022-09-12T23:32:49.484Z,99.90
2022-09-12T23:35:19.456Z,99.90
2022-09-12T23:37:47.147Z,99.90
2022-09-12T23:40:14.110Z,99.90
2022-09-12T23:42:41.068Z,99.90
2022-09-12T23:45:08.259Z,99.90
2022-09-12T23:47:34.991Z,99.90
2022-09-12T23:50:01.893Z,99.90
2022-09-12T23:52:29.640Z,99.90
2022-09-12T23:54:56.427Z,99.90
2022-09-12T23:57:23.338Z,99.90
2022-09-12T23:59:50.080Z,99.90
